Time;durP1;ratioP1;P1;durP2;ratioP2;P2;SDS_P1;SDS_P2;PMS_P1;PMS_P2;Temp;Humidity;BMP_temperature;BMP_pressure;BME280_temperature;BME280_humidity;BME280_pressure;Samples;Min_cycle;Max_cycle;Signal;HPM_P1;HPM_P2
2021/08/06 00:09:34;;;;;;;14.05;4.93;;;28.10;31.90;;;;;;21248434;27;20104;-69
2021/08/06 00:19:36;;;;;;;7.55;2.78;;;28.00;32.20;;;;;;21240107;27;20491;-64
2021/08/06 00:29:37;;;;;;;7.35;2.28;;;27.90;32.50;;;;;;21248264;28;20051;-65
2021/08/06 00:39:39;;;;;;;5.03;2.10;;;27.70;32.80;;;;;;21249110;28;20039;-67
2021/08/06 00:49:41;;;;;;;6.90;3.10;;;27.60;33.00;;;;;;21281278;27;20049;-69
2021/08/06 00:59:42;;;;;;;9.95;3.13;;;27.60;33.50;;;;;;21282028;27;20415;-66
2021/08/06 01:09:55;;;;;;;6.85;2.05;;;27.50;33.80;;;;;;21262807;27;20115;-69
2021/08/06 01:20:09;;;;;;;6.03;2.67;;;27.60;34.50;;;;;;21262201;27;20043;-62
2021/08/06 01:30:11;;;;;;;8.82;3.13;;;27.50;34.50;;;;;;21259961;27;20251;-70
2021/08/06 01:40:13;;;;;;;12.63;3.25;;;27.30;35.10;;;;;;21260159;27;20449;-70
2021/08/06 01:50:24;;;;;;;12.00;3.30;;;27.20;35.30;;;;;;21260087;27;20050;-67
2021/08/06 02:00:29;;;;;;;10.43;3.22;;;27.10;34.90;;;;;;21259074;27;20059;-70
2021/08/06 02:10:35;;;;;;;10.05;3.35;;;27.10;35.20;;;;;;21258437;27;20047;-71
2021/08/06 02:20:40;;;;;;;8.48;2.50;;;27.00;35.30;;;;;;21241292;27;20055;-71
2021/08/06 02:30:43;;;;;;;9.02;2.65;;;26.90;35.70;;;;;;21238656;27;20047;-71
2021/08/06 02:40:47;;;;;;;8.98;3.13;;;26.80;35.90;;;;;;21256355;27;20080;-67
2021/08/06 02:50:53;;;;;;;11.23;3.17;;;26.70;36.20;;;;;;21271548;27;20043;-69
2021/08/06 03:00:56;;;;;;;10.15;3.78;;;26.60;36.70;;;;;;21237697;27;20443;-70
2021/08/06 03:11:18;;;;;;;14.10;3.15;;;26.50;37.50;;;;;;21260337;27;20055;-68
2021/08/06 03:21:31;;;;;;;7.57;3.20;;;26.40;38.10;;;;;;21254156;27;20119;-68
2021/08/06 03:31:36;;;;;;;9.02;3.03;;;26.30;37.90;;;;;;21255551;27;20518;-69
2021/08/06 03:41:41;;;;;;;6.05;2.17;;;26.10;38.10;;;;;;21286804;27;20051;-70
2021/08/06 03:51:45;;;;;;;7.35;2.63;;;25.90;38.40;;;;;;21299390;27;20050;-66
2021/08/06 04:01:49;;;;;;;7.50;3.33;;;25.80;38.80;;;;;;21278220;27;20051;-67
2021/08/06 04:11:52;;;;;;;8.63;3.13;;;25.90;39.10;;;;;;21251344;27;20047;-70
2021/08/06 04:21:56;;;;;;;8.80;2.78;;;25.70;39.10;;;;;;21251239;27;20522;-67
2021/08/06 04:32:00;;;;;;;11.98;4.57;;;25.60;39.50;;;;;;21249955;28;20050;-66
2021/08/06 04:42:04;;;;;;;13.15;3.47;;;25.40;39.90;;;;;;21250475;28;20051;-71
2021/08/06 04:52:08;;;;;;;10.98;3.20;;;25.40;40.20;;;;;;21248507;28;20130;-69
2021/08/06 05:02:15;;;;;;;5.85;2.55;;;25.30;40.00;;;;;;21246866;28;20054;-64
2021/08/06 05:12:17;;;;;;;7.55;2.42;;;25.40;38.20;;;;;;21228782;28;20096;-65
2021/08/06 05:22:20;;;;;;;5.50;3.38;;;25.30;37.90;;;;;;21246769;28;20448;-70
2021/08/06 05:32:23;;;;;;;11.95;3.50;;;25.10;39.80;;;;;;21247355;27;20134;-71
2021/08/06 05:42:26;;;;;;;8.70;3.13;;;24.90;40.50;;;;;;21260176;27;20482;-67
2021/08/06 05:52:29;;;;;;;9.82;5.57;;;24.80;40.80;;;;;;21259965;27;20514;-65
2021/08/06 06:02:31;;;;;;;6.63;2.58;;;25.00;40.00;;;;;;21258674;27;20139;-71
2021/08/06 06:12:33;;;;;;;10.70;3.15;;;25.00;39.60;;;;;;21239855;27;20043;-71
2021/08/06 06:22:38;;;;;;;10.52;4.05;;;25.00;40.10;;;;;;21257344;27;20083;-73
2021/08/06 06:32:40;;;;;;;12.98;3.17;;;25.00;40.30;;;;;;21256951;27;20172;-72
2021/08/06 06:42:44;;;;;;;18.20;4.20;;;25.10;41.00;;;;;;21255978;27;20512;-71
2021/08/06 06:52:47;;;;;;;12.35;3.15;;;25.20;40.90;;;;;;21254909;27;20100;-72
2021/08/06 07:02:51;;;;;;;6.60;2.88;;;25.60;40.10;;;;;;21254897;27;20051;-72
2021/08/06 07:12:55;;;;;;;11.10;3.03;;;26.10;39.70;;;;;;21292940;27;20479;-71
2021/08/06 07:22:57;;;;;;;9.02;3.05;;;26.60;38.90;;;;;;21254653;27;20047;-71
2021/08/06 07:33:00;;;;;;;6.55;2.38;;;27.10;38.20;;;;;;21252505;27;20132;-70
2021/08/06 07:43:03;;;;;;;8.20;3.50;;;27.60;37.40;;;;;;21252258;27;20061;-73
2021/08/06 07:53:05;;;;;;;8.45;2.72;;;28.10;36.70;;;;;;21252108;27;20415;-72
2021/08/06 08:03:07;;;;;;;7.40;2.88;;;28.60;35.90;;;;;;21251980;27;20047;-73
2021/08/06 08:13:10;;;;;;;8.57;3.00;;;29.00;35.40;;;;;;21250915;27;20134;-72
2021/08/06 08:23:13;;;;;;;8.65;3.13;;;29.30;35.00;;;;;;21250590;27;20445;-72
2021/08/06 08:33:17;;;;;;;8.48;3.25;;;29.50;34.40;;;;;;21249928;28;20529;-72
2021/08/06 08:43:21;;;;;;;4.47;2.65;;;30.00;32.90;;;;;;21249422;28;20055;-72
2021/08/06 08:53:24;;;;;;;8.32;5.97;;;30.30;31.20;;;;;;21248433;28;20111;-69
2021/08/06 09:03:42;;;;;;;5.47;2.42;;;30.60;29.90;;;;;;21293588;28;20055;-69
2021/08/06 09:13:44;;;;;;;7.80;1.83;;;30.90;28.30;;;;;;21290445;27;20043;-71
2021/08/06 09:23:59;;;;;;;6.57;2.10;;;31.10;29.10;;;;;;21262994;27;20479;-73
2021/08/06 09:34:16;;;;;;;5.15;2.03;;;31.10;28.50;;;;;;21261530;27;20043;-72
2021/08/06 09:44:26;;;;;;;3.45;1.70;;;31.30;26.40;;;;;;21261504;27;20051;-71
2021/08/06 09:54:29;;;;;;;5.43;1.95;;;31.30;24.20;;;;;;21260874;27;20084;-72
2021/08/06 10:04:32;;;;;;;8.07;2.05;;;31.30;23.50;;;;;;21259916;27;20051;-73
2021/08/06 10:14:37;;;;;;;4.65;1.88;;;31.30;24.20;;;;;;21260300;27;20043;-70
2021/08/06 10:24:42;;;;;;;4.15;2.30;;;31.40;24.20;;;;;;21259937;27;20512;-73
2021/08/06 10:35:05;;;;;;;5.15;1.70;;;31.40;23.20;;;;;;21259081;27;20047;-71
2021/08/06 10:45:08;;;;;;;3.22;1.95;;;31.60;21.30;;;;;;21257453;27;20051;-73
2021/08/06 10:55:20;;;;;;;3.10;1.70;;;31.60;21.40;;;;;;21259114;27;20047;-69
2021/08/06 11:05:39;;;;;;;3.60;2.47;;;31.80;19.50;;;;;;21266583;27;20059;-69
2021/08/06 11:16:07;;;;;;;8.45;6.32;;;31.80;20.10;;;;;;21254378;27;20058;-70
2021/08/06 11:26:10;;;;;;;11.45;5.30;;;31.90;19.10;;;;;;21266176;27;20055;-71
2021/08/06 11:36:16;;;;;;;4.22;1.88;;;32.00;19.80;;;;;;21264878;27;20095;-72
2021/08/06 11:46:18;;;;;;;6.38;3.00;;;32.20;18.80;;;;;;21252312;27;20103;-73
2021/08/06 11:56:21;;;;;;;3.47;2.40;;;32.20;17.60;;;;;;21250776;27;20047;-72
2021/08/06 12:06:23;;;;;;;2.33;1.27;;;32.50;17.90;;;;;;21249898;27;20054;-69
2021/08/06 12:16:51;;;;;;;1.52;1.05;;;32.60;16.10;;;;;;21251047;27;20441;-72
2021/08/06 12:26:59;;;;;;;2.83;1.42;;;32.80;16.50;;;;;;21245174;27;20184;-71
2021/08/06 12:37:09;;;;;;;5.50;1.63;;;32.90;16.20;;;;;;21249996;28;20044;-73
2021/08/06 12:47:18;;;;;;;3.08;1.60;;;32.90;15.60;;;;;;21263149;27;20108;-74
2021/08/06 12:57:42;;;;;;;4.10;0.98;;;33.10;15.90;;;;;;21246970;27;20035;-68
2021/08/06 13:07:45;;;;;;;1.38;1.00;;;33.20;13.50;;;;;;21289803;27;20475;-72
2021/08/06 13:17:46;;;;;;;3.42;1.27;;;33.20;13.50;;;;;;21248870;27;20134;-71
2021/08/06 13:27:48;;;;;;;3.05;1.52;;;33.20;15.00;;;;;;21247990;27;20107;-71
2021/08/06 13:37:54;;;;;;;5.13;4.55;;;33.40;15.00;;;;;;21246654;27;20402;-71
2021/08/06 13:47:56;;;;;;;3.75;1.50;;;33.40;14.40;;;;;;21261961;27;20115;-72
2021/08/06 13:57:58;;;;;;;3.70;1.30;;;33.30;14.30;;;;;;21260885;27;20058;-71
2021/08/06 14:08:00;;;;;;;1.73;1.08;;;33.40;14.30;;;;;;21262809;27;20055;-73
2021/08/06 14:18:01;;;;;;;2.50;1.08;;;33.50;14.60;;;;;;21260500;27;20075;-71
2021/08/06 14:28:04;;;;;;;3.58;1.73;;;33.50;13.30;;;;;;21256952;27;20054;-72
2021/08/06 14:38:05;;;;;;;2.97;1.55;;;33.50;13.20;;;;;;21257432;27;20043;-71
2021/08/06 14:48:07;;;;;;;3.72;1.92;;;33.60;13.90;;;;;;21237858;27;20157;-71
2021/08/06 14:58:08;;;;;;;2.90;1.50;;;33.60;13.70;;;;;;21255416;27;20043;-71
2021/08/06 15:08:10;;;;;;;3.28;1.25;;;33.60;14.00;;;;;;21254401;27;20050;-70
2021/08/06 15:18:11;;;;;;;6.07;1.65;;;33.60;13.90;;;;;;21253772;27;20039;-71
2021/08/06 15:28:16;;;;;;;3.60;1.23;;;33.60;14.50;;;;;;21252264;27;20182;-71
2021/08/06 15:38:20;;;;;;;2.40;1.40;;;33.60;13.70;;;;;;21252066;27;20103;-71
2021/08/06 15:48:21;;;;;;;3.35;1.90;;;33.60;14.30;;;;;;21239206;27;20047;-69
2021/08/06 15:58:23;;;;;;;2.85;1.50;;;33.60;14.10;;;;;;21299649;27;20050;-66
2021/08/06 16:08:25;;;;;;;4.28;1.25;;;33.50;13.70;;;;;;21249504;27;20055;-71
2021/08/06 16:18:26;;;;;;;7.45;4.70;;;33.60;14.50;;;;;;21248060;27;20047;-73
2021/08/06 16:28:28;;;;;;;5.95;4.82;;;33.60;14.40;;;;;;21246479;27;20051;-68
2021/08/06 16:38:31;;;;;;;2.60;1.40;;;33.60;14.20;;;;;;21247573;28;20044;-75
2021/08/06 16:48:36;;;;;;;2.83;1.35;;;33.50;14.80;;;;;;21246853;28;20333;-70
2021/08/06 16:58:37;;;;;;;3.45;1.48;;;33.40;13.80;;;;;;21249574;28;20066;-71
2021/08/06 17:08:38;;;;;;;2.08;1.30;;;33.30;14.50;;;;;;21268558;28;20046;-71
2021/08/06 17:18:40;;;;;;;5.55;1.70;;;33.30;14.30;;;;;;21284891;28;20043;-69
2021/08/06 17:28:42;;;;;;;2.85;1.60;;;33.10;15.00;;;;;;21276359;27;20133;-70
2021/08/06 17:38:46;;;;;;;4.22;3.17;;;32.90;15.90;;;;;;21246208;27;20531;-71
2021/08/06 17:48:47;;;;;;;2.83;2.20;;;32.70;15.90;;;;;;21262278;27;20055;-73
2021/08/06 17:58:49;;;;;;;3.20;2.20;;;32.60;17.10;;;;;;21265762;27;20415;-70
2021/08/06 18:08:50;;;;;;;4.05;2.92;;;32.40;18.00;;;;;;21243191;27;20532;-71
2021/08/06 18:18:52;;;;;;;4.80;2.30;;;32.30;18.60;;;;;;21258746;27;20043;-71
2021/08/06 18:28:56;;;;;;;4.72;2.08;;;32.10;19.10;;;;;;21257475;27;20126;-72
2021/08/06 18:38:58;;;;;;;4.55;2.15;;;31.90;19.30;;;;;;21256385;27;20047;-70
2021/08/06 18:49:00;;;;;;;3.83;2.50;;;31.60;19.70;;;;;;21256679;27;20055;-72
2021/08/06 18:59:03;;;;;;;4.28;2.25;;;31.40;20.10;;;;;;21254849;27;20384;-69
2021/08/06 19:09:05;;;;;;;5.72;2.60;;;31.20;20.00;;;;;;21254642;27;20043;-67
2021/08/06 19:19:08;;;;;;;4.57;2.40;;;31.00;20.60;;;;;;21253747;27;20043;-69
2021/08/06 19:29:09;;;;;;;3.30;2.35;;;30.80;20.80;;;;;;21252546;27;20051;-70
2021/08/06 19:39:11;;;;;;;4.50;2.35;;;30.60;20.70;;;;;;21251730;27;20043;-65
2021/08/06 19:49:19;;;;;;;4.50;2.40;;;30.40;20.40;;;;;;21233426;27;20047;-67
2021/08/06 19:59:21;;;;;;;4.60;2.53;;;30.20;21.10;;;;;;21252013;27;20050;-67
2021/08/06 20:09:23;;;;;;;8.18;3.65;;;30.10;20.60;;;;;;21253682;27;20483;-68
2021/08/06 20:19:25;;;;;;;4.55;3.10;;;29.90;21.00;;;;;;21261604;27;20043;-66
2021/08/06 20:29:27;;;;;;;5.57;3.40;;;29.80;21.40;;;;;;21252173;27;20043;-67
2021/08/06 20:39:32;;;;;;;7.93;3.00;;;29.60;21.50;;;;;;21248240;28;20043;-65
2021/08/06 20:49:33;;;;;;;7.68;3.67;;;29.40;21.50;;;;;;21266575;28;20082;-65
2021/08/06 20:59:35;;;;;;;6.53;3.75;;;29.20;22.10;;;;;;21255496;28;20476;-68
2021/08/06 21:09:39;;;;;;;7.35;3.50;;;29.10;22.40;;;;;;21264538;27;20079;-65
2021/08/06 21:19:41;;;;;;;5.10;3.10;;;28.90;22.70;;;;;;21268569;27;20068;-66
2021/08/06 21:29:43;;;;;;;6.13;3.20;;;28.70;22.80;;;;;;21257351;27;20051;-69
2021/08/06 21:39:46;;;;;;;5.88;3.22;;;28.60;22.80;;;;;;21300740;27;20051;-67
2021/08/06 21:49:47;;;;;;;5.97;3.40;;;28.40;22.90;;;;;;21306176;27;20502;-71
2021/08/06 21:59:49;;;;;;;4.97;3.05;;;28.30;23.20;;;;;;21263529;27;20050;-71
2021/08/06 22:09:53;;;;;;;3.92;2.72;;;28.10;23.60;;;;;;21262435;27;20047;-70
2021/08/06 22:19:55;;;;;;;5.93;3.05;;;28.10;23.90;;;;;;21259170;27;20046;-70
2021/08/06 22:29:57;;;;;;;4.82;2.55;;;27.90;24.10;;;;;;21259272;27;20491;-70
2021/08/06 22:39:58;;;;;;;4.53;3.10;;;27.80;24.60;;;;;;21257881;27;20539;-66
2021/08/06 22:50:01;;;;;;;5.88;4.28;;;27.70;24.50;;;;;;21257352;27;20051;-68
2021/08/06 23:00:04;;;;;;;5.65;2.72;;;27.70;24.70;;;;;;21256835;27;20126;-69
2021/08/06 23:10:06;;;;;;;4.45;3.00;;;27.60;24.70;;;;;;21238142;27;20406;-68
2021/08/06 23:20:09;;;;;;;3.83;2.28;;;27.40;25.00;;;;;;21264784;27;20058;-68
2021/08/06 23:30:11;;;;;;;11.60;5.45;;;27.40;25.10;;;;;;21253420;27;20449;-71
2021/08/06 23:40:15;;;;;;;5.10;2.72;;;27.40;25.70;;;;;;21253563;27;20054;-71
2021/08/06 23:50:16;;;;;;;4.25;2.50;;;27.40;25.80;;;;;;21252670;27;20047;-70
